createdAt,value
2023-04-14T00:01:07.170Z,19.17
2023-04-14T00:03:31.225Z,19.83
2023-04-14T00:05:55.017Z,20.10
2023-04-14T00:08:18.639Z,19.07
2023-04-14T00:10:42.233Z,25.48
2023-04-14T00:13:05.775Z,24.67
2023-04-14T00:15:29.431Z,27.80
2023-04-14T00:17:54.456Z,37.23
2023-04-14T00:20:18.089Z,44.60
2023-04-14T00:22:41.735Z,35.17
2023-04-14T00:25:05.881Z,36.03
2023-04-14T00:27:31.104Z,28.73
2023-04-14T00:29:55.033Z,29.65
2023-04-14T00:32:19.727Z,36.15
2023-04-14T00:34:44.720Z,29.77
2023-04-14T00:37:08.361Z,30.08
2023-04-14T00:39:32.123Z,31.58
2023-04-14T00:41:56.741Z,33.35
2023-04-14T00:44:20.380Z,32.95
2023-04-14T00:46:44.754Z,31.48
2023-04-14T00:49:09.085Z,31.08
2023-04-14T00:51:34.516Z,30.42
2023-04-14T00:53:58.666Z,30.23
2023-04-14T00:56:22.460Z,31.87
2023-04-14T00:58:46.345Z,29.45
2023-04-14T01:01:10.164Z,29.50
2023-04-14T01:03:34.184Z,33.35
2023-04-14T01:05:57.851Z,30.42
2023-04-14T01:08:23.466Z,28.92
2023-04-14T01:10:59.680Z,28.33
2023-04-14T01:13:35.555Z,30.73
2023-04-14T01:16:03.902Z,29.80
2023-04-14T01:18:37.125Z,30.83
2023-04-14T01:21:07.833Z,30.80
2023-04-14T01:23:39.064Z,33.22
2023-04-14T01:26:20.830Z,30.83
2023-04-14T01:29:27.960Z,25.73
2023-04-14T01:32:03.119Z,23.70
2023-04-14T01:34:36.271Z,25.27
2023-04-14T01:37:07.592Z,22.08
2023-04-14T01:39:37.220Z,21.30
2023-04-14T01:42:02.107Z,22.15
2023-04-14T01:44:27.488Z,21.60
2023-04-14T01:46:56.716Z,19.10
2023-04-14T01:49:22.527Z,23.33
2023-04-14T01:51:47.279Z,18.20
2023-04-14T01:54:12.920Z,18.25
2023-04-14T01:56:37.969Z,18.00
2023-04-14T01:59:04.301Z,19.80
2023-04-14T02:01:29.353Z,17.33
2023-04-14T02:03:54.991Z,22.10
2023-04-14T02:06:20.277Z,23.52
2023-04-14T02:08:44.611Z,17.70
2023-04-14T02:11:11.072Z,16.15
2023-04-14T02:13:35.438Z,18.15
2023-04-14T02:16:02.101Z,15.32
2023-04-14T02:18:26.321Z,15.75
2023-04-14T02:20:52.761Z,13.70
2023-04-14T02:23:16.827Z,15.53
2023-04-14T02:25:48.466Z,14.45
2023-04-14T02:28:20.046Z,13.88
2023-04-14T02:30:49.320Z,14.07
2023-04-14T02:33:17.317Z,12.70
2023-04-14T02:35:46.021Z,16.33
2023-04-14T02:38:19.926Z,14.65
2023-04-14T02:40:45.229Z,14.73
2023-04-14T02:43:19.064Z,10.18
2023-04-14T02:45:47.006Z,10.38
2023-04-14T02:48:14.865Z,9.93
2023-04-14T02:50:40.706Z,14.35
2023-04-14T02:53:13.161Z,10.70
2023-04-14T02:55:37.816Z,10.75
2023-04-14T02:58:02.034Z,12.43
2023-04-14T03:00:28.439Z,12.88
2023-04-14T03:02:55.027Z,11.48
2023-04-14T03:05:19.480Z,11.43
2023-04-14T03:07:52.318Z,12.88
2023-04-14T03:10:18.759Z,10.45
2023-04-14T03:12:45.510Z,12.70
2023-04-14T03:15:12.017Z,12.00
2023-04-14T03:17:37.597Z,11.60
2023-04-14T03:20:03.199Z,13.88
2023-04-14T03:22:28.761Z,12.70
2023-04-14T03:24:57.125Z,12.88
2023-04-14T03:27:26.243Z,10.43
2023-04-14T03:29:55.124Z,10.90
2023-04-14T03:32:20.837Z,9.98
2023-04-14T03:34:49.124Z,11.13
2023-04-14T03:37:16.459Z,9.02
2023-04-14T03:39:40.869Z,12.05
2023-04-14T03:42:05.522Z,12.50
2023-04-14T03:44:35.722Z,11.35
2023-04-14T03:47:00.754Z,8.98
2023-04-14T03:49:27.054Z,9.40
2023-04-14T03:51:54.801Z,12.93
2023-04-14T03:54:20.792Z,11.05
2023-04-14T03:56:47.615Z,10.25
2023-04-14T03:59:14.337Z,9.38
2023-04-14T04:01:41.971Z,9.35
2023-04-14T04:04:07.037Z,12.40
2023-04-14T04:06:31.605Z,10.02
2023-04-14T04:08:57.369Z,8.73
2023-04-14T04:11:23.128Z,8.52
2023-04-14T04:13:49.994Z,12.27
2023-04-14T04:16:15.167Z,8.70
2023-04-14T04:18:43.070Z,11.80
2023-04-14T04:21:08.577Z,9.45
2023-04-14T04:23:34.572Z,9.52
2023-04-14T04:25:59.177Z,9.43
2023-04-14T04:28:29.632Z,9.65
2023-04-14T04:30:56.066Z,12.45
2023-04-14T04:33:21.391Z,11.93
2023-04-14T04:35:48.194Z,9.32
2023-04-14T04:38:12.398Z,10.48
2023-04-14T04:40:39.907Z,9.65
2023-04-14T04:43:10.334Z,12.60
2023-04-14T04:45:52.048Z,10.27
2023-04-14T04:48:15.832Z,12.52
2023-04-14T04:50:41.982Z,9.50
2023-04-14T04:53:07.077Z,8.95
2023-04-14T04:55:32.107Z,10.15
2023-04-14T04:57:55.724Z,10.00
2023-04-14T05:00:22.929Z,9.07
2023-04-14T05:02:46.704Z,9.95
2023-04-14T05:05:11.296Z,10.90
2023-04-14T05:07:34.925Z,6.68
2023-04-14T05:09:59.813Z,11.85
2023-04-14T05:12:23.441Z,10.07
2023-04-14T05:14:46.953Z,11.02
2023-04-14T05:17:10.756Z,9.55
2023-04-14T05:19:34.263Z,12.48
2023-04-14T05:21:57.810Z,9.00
2023-04-14T05:24:21.352Z,8.23
2023-04-14T05:26:58.338Z,15.10
2023-04-14T05:29:29.923Z,13.85
2023-04-14T05:31:53.422Z,15.38
2023-04-14T05:34:17.154Z,10.48
2023-04-14T05:36:40.693Z,10.68
2023-04-14T05:39:04.486Z,10.88
2023-04-14T05:41:28.006Z,9.65
2023-04-14T05:43:52.915Z,13.07
2023-04-14T05:46:16.461Z,9.30
2023-04-14T05:48:40.111Z,8.60
2023-04-14T05:51:03.632Z,6.85
2023-04-14T05:53:27.768Z,10.25
2023-04-14T05:55:53.466Z,10.20
2023-04-14T05:58:17.074Z,10.43
2023-04-14T06:00:42.044Z,10.35
2023-04-14T06:03:05.986Z,11.50
2023-04-14T06:05:29.899Z,11.18
2023-04-14T06:07:53.555Z,8.52
2023-04-14T06:10:17.187Z,10.65
2023-04-14T06:12:40.972Z,25.27
2023-04-14T06:15:05.242Z,26.85
2023-04-14T06:17:30.910Z,23.73
2023-04-14T06:19:54.456Z,14.48
2023-04-14T06:22:19.859Z,16.15
2023-04-14T06:24:43.429Z,14.55
2023-04-14T06:27:07.127Z,13.50
2023-04-14T06:29:31.001Z,10.70
2023-04-14T06:31:54.949Z,10.02
2023-04-14T06:34:20.000Z,9.23
2023-04-14T06:36:43.707Z,12.48
2023-04-14T06:39:07.224Z,16.45
2023-04-14T06:41:30.806Z,9.27
2023-04-14T06:43:54.361Z,9.95
2023-04-14T06:46:18.180Z,8.88
2023-04-14T06:48:41.730Z,8.95
2023-04-14T06:51:10.598Z,13.80
2023-04-14T06:53:34.327Z,9.82
2023-04-14T06:56:00.644Z,12.07
2023-04-14T06:58:24.319Z,13.60
2023-04-14T07:00:47.975Z,10.27
2023-04-14T07:03:11.743Z,14.43
2023-04-14T07:05:35.413Z,12.82
2023-04-14T07:08:00.346Z,13.15
2023-04-14T07:10:23.959Z,9.55
2023-04-14T07:12:47.493Z,8.18
2023-04-14T07:15:14.173Z,14.25
2023-04-14T07:17:38.150Z,8.82
2023-04-14T07:20:03.675Z,9.27
2023-04-14T07:22:27.222Z,9.30
2023-04-14T07:24:53.810Z,11.13
2023-04-14T07:27:17.340Z,9.70
2023-04-14T07:29:40.949Z,10.15
2023-04-14T07:32:04.481Z,12.50
2023-04-14T07:34:28.503Z,10.77
2023-04-14T07:36:52.073Z,11.82
2023-04-14T07:39:15.916Z,11.20
2023-04-14T07:41:41.271Z,14.30
2023-04-14T07:44:04.879Z,15.43
2023-04-14T07:46:28.606Z,14.43
2023-04-14T07:48:52.487Z,16.77
2023-04-14T07:51:16.090Z,17.23
2023-04-14T07:53:43.284Z,15.88
2023-04-14T07:56:07.249Z,13.27
2023-04-14T07:58:32.325Z,13.68
2023-04-14T08:00:56.109Z,13.65
2023-04-14T08:03:19.878Z,11.95
2023-04-14T08:05:43.821Z,14.10
2023-04-14T08:08:07.571Z,13.57
2023-04-14T08:10:31.180Z,15.18
2023-04-14T08:12:54.786Z,14.55
2023-04-14T08:15:19.894Z,15.13
2023-04-14T08:17:43.558Z,12.48
2023-04-14T08:20:09.050Z,13.70
2023-04-14T08:22:35.025Z,13.52
2023-04-14T08:24:58.551Z,13.35
2023-04-14T08:27:22.144Z,11.85
2023-04-14T08:29:46.008Z,13.30
2023-04-14T08:32:11.043Z,10.63
2023-04-14T08:34:34.814Z,16.55
2023-04-14T08:37:00.240Z,8.10
2023-04-14T08:39:24.166Z,9.73
2023-04-14T08:41:47.777Z,8.50
2023-04-14T08:44:11.345Z,9.55
2023-04-14T08:46:36.402Z,11.10
2023-04-14T08:49:08.010Z,6.43
2023-04-14T08:51:33.818Z,9.85
2023-04-14T08:53:58.410Z,8.60
2023-04-14T08:56:23.108Z,7.75
2023-04-14T08:58:47.422Z,9.35
2023-04-14T09:01:11.545Z,8.32
2023-04-14T09:03:36.428Z,8.10
2023-04-14T09:06:02.611Z,6.38
2023-04-14T09:08:26.408Z,9.60
2023-04-14T09:10:51.485Z,8.48
2023-04-14T09:13:17.874Z,6.78
2023-04-14T09:15:41.502Z,7.35
2023-04-14T09:18:05.322Z,6.07
2023-04-14T09:20:40.340Z,9.18
2023-04-14T09:23:06.486Z,9.45
2023-04-14T09:25:31.119Z,7.32
2023-04-14T09:27:55.461Z,6.65
2023-04-14T09:30:19.143Z,6.47
2023-04-14T09:32:44.995Z,8.85
2023-04-14T09:35:13.268Z,7.97
2023-04-14T09:37:48.813Z,10.02
2023-04-14T09:40:29.330Z,7.47
2023-04-14T09:42:52.929Z,6.72
2023-04-14T09:45:16.622Z,7.82
2023-04-14T09:47:40.396Z,6.82
2023-04-14T09:50:05.632Z,7.30
2023-04-14T09:52:39.664Z,10.07
2023-04-14T09:55:03.341Z,9.02
2023-04-14T09:57:29.798Z,6.90
2023-04-14T09:59:53.478Z,7.32
2023-04-14T10:02:17.204Z,7.60
2023-04-14T10:04:40.980Z,9.18
2023-04-14T10:07:09.040Z,17.45
2023-04-14T10:09:38.809Z,6.93
2023-04-14T10:12:12.323Z,7.90
2023-04-14T10:14:38.927Z,9.63
2023-04-14T10:17:03.445Z,5.53
2023-04-14T10:19:27.278Z,7.30
2023-04-14T10:21:51.119Z,6.90
2023-04-14T10:24:14.739Z,6.97
2023-04-14T10:26:38.354Z,8.45
2023-04-14T10:29:03.878Z,7.22
2023-04-14T10:31:34.216Z,10.02
2023-04-14T10:33:58.315Z,7.25
2023-04-14T10:36:25.737Z,8.18
2023-04-14T10:38:49.480Z,6.90
2023-04-14T10:41:14.231Z,9.73
2023-04-14T10:43:38.699Z,8.30
2023-04-14T10:46:02.709Z,9.07
2023-04-14T10:48:28.636Z,10.55
2023-04-14T10:50:57.365Z,12.65
2023-04-14T10:53:21.265Z,8.82
2023-04-14T10:55:52.242Z,9.00
2023-04-14T10:58:21.754Z,10.73
2023-04-14T11:00:45.443Z,7.38
2023-04-14T11:03:11.865Z,8.80
2023-04-14T11:05:37.523Z,9.80
2023-04-14T11:08:03.299Z,10.50
2023-04-14T11:10:32.612Z,8.43
2023-04-14T11:12:58.556Z,10.30
2023-04-14T11:15:22.139Z,8.18
2023-04-14T11:17:46.085Z,7.20
2023-04-14T11:20:16.759Z,6.32
2023-04-14T11:22:44.594Z,8.07
2023-04-14T11:25:11.990Z,7.28
2023-04-14T11:27:36.583Z,7.35
2023-04-14T11:30:01.805Z,8.70
2023-04-14T11:32:25.548Z,5.70
2023-04-14T11:34:49.239Z,5.75
2023-04-14T11:37:13.349Z,8.90
2023-04-14T11:39:38.433Z,5.38
2023-04-14T11:42:02.523Z,7.90
2023-04-14T11:44:26.551Z,6.78
2023-04-14T11:46:51.656Z,6.45
2023-04-14T11:49:15.264Z,6.55
2023-04-14T11:51:38.958Z,10.60
2023-04-14T11:54:03.357Z,6.45
2023-04-14T11:56:28.826Z,6.68
2023-04-14T11:58:53.824Z,5.82
2023-04-14T12:01:25.077Z,5.53
2023-04-14T12:03:49.667Z,6.53
2023-04-14T12:06:13.430Z,7.55
2023-04-14T12:08:37.174Z,9.57
2023-04-14T12:11:14.324Z,6.35
2023-04-14T12:13:43.271Z,7.68
2023-04-14T12:16:07.157Z,7.38
2023-04-14T12:18:30.878Z,7.85
2023-04-14T12:20:56.427Z,6.38
2023-04-14T12:23:20.552Z,6.90
2023-04-14T12:25:44.165Z,8.55
2023-04-14T12:28:08.460Z,6.93
2023-04-14T12:30:33.740Z,7.85
2023-04-14T12:32:57.808Z,6.88
2023-04-14T12:35:24.657Z,8.80
2023-04-14T12:37:51.933Z,9.55
2023-04-14T12:40:16.348Z,8.20
2023-04-14T12:42:48.721Z,8.70
2023-04-14T12:45:12.804Z,9.40
2023-04-14T12:47:38.291Z,9.35
2023-04-14T12:50:03.701Z,8.45
2023-04-14T12:52:38.222Z,9.80
2023-04-14T12:55:03.235Z,8.40
2023-04-14T12:57:27.298Z,10.45
2023-04-14T12:59:51.013Z,8.02
2023-04-14T13:02:15.497Z,6.63
2023-04-14T13:04:40.640Z,9.90
2023-04-14T13:07:04.496Z,7.55
2023-04-14T13:09:29.270Z,7.93
2023-04-14T13:11:53.784Z,7.32
2023-04-14T13:14:17.612Z,8.55
2023-04-14T13:16:41.158Z,8.88
2023-04-14T13:19:04.774Z,9.90
2023-04-14T13:21:29.669Z,8.82
2023-04-14T13:23:53.290Z,9.25
2023-04-14T13:26:16.844Z,12.15
2023-04-14T13:28:40.475Z,7.45
2023-04-14T13:31:04.050Z,7.63
2023-04-14T13:33:27.933Z,8.98
2023-04-14T13:35:51.913Z,10.82
2023-04-14T13:38:17.035Z,7.88
2023-04-14T13:40:40.540Z,6.97
2023-04-14T13:43:04.327Z,9.40
2023-04-14T13:45:28.480Z,8.40
2023-04-14T13:47:52.249Z,10.25
2023-04-14T13:50:16.081Z,8.23
2023-04-14T13:52:41.053Z,8.73
2023-04-14T13:55:06.943Z,8.98
2023-04-14T13:57:30.559Z,10.15
2023-04-14T13:59:54.065Z,7.97
2023-04-14T14:02:17.787Z,8.85
2023-04-14T14:04:41.584Z,6.15
2023-04-14T14:07:05.389Z,6.10
2023-04-14T14:09:28.956Z,8.35
2023-04-14T14:11:54.001Z,7.82
2023-04-14T14:14:17.510Z,8.60
2023-04-14T14:16:41.209Z,10.25
2023-04-14T14:19:07.330Z,7.68
2023-04-14T14:21:31.437Z,6.53
2023-04-14T14:23:54.967Z,8.30
2023-04-14T14:26:18.569Z,7.40
2023-04-14T14:28:43.681Z,7.72
2023-04-14T14:31:07.564Z,9.32
2023-04-14T14:33:31.181Z,11.00
2023-04-14T14:35:55.074Z,7.15
2023-04-14T14:38:18.586Z,7.93
2023-04-14T14:40:42.155Z,7.55
2023-04-14T14:43:05.743Z,7.00
2023-04-14T14:45:32.968Z,9.70
2023-04-14T14:47:56.940Z,7.05
2023-04-14T14:50:21.055Z,9.23
2023-04-14T14:52:44.537Z,8.95
2023-04-14T14:55:09.852Z,7.43
2023-04-14T14:57:33.404Z,7.53
2023-04-14T14:59:57.381Z,6.80
2023-04-14T15:02:22.744Z,11.43
2023-04-14T15:04:47.279Z,6.35
2023-04-14T15:07:10.856Z,8.20
2023-04-14T15:09:34.424Z,6.75
2023-04-14T15:11:58.188Z,7.53
2023-04-14T15:14:21.830Z,9.43
2023-04-14T15:16:45.531Z,8.07
2023-04-14T15:19:10.704Z,9.15
2023-04-14T15:21:34.477Z,8.82
2023-04-14T15:23:58.037Z,7.03
2023-04-14T15:26:22.161Z,8.68
2023-04-14T15:28:47.608Z,9.07
2023-04-14T15:31:11.134Z,7.75
2023-04-14T15:33:34.889Z,9.55
2023-04-14T15:35:59.791Z,8.00
2023-04-14T15:38:23.497Z,7.80
2023-04-14T15:40:47.010Z,6.68
2023-04-14T15:43:11.437Z,13.48
2023-04-14T15:45:35.001Z,7.80
2023-04-14T15:47:58.747Z,8.60
2023-04-14T15:50:22.302Z,8.43
2023-04-14T15:52:47.288Z,9.00
2023-04-14T15:55:11.965Z,6.80
2023-04-14T15:57:36.182Z,8.90
2023-04-14T15:59:59.735Z,6.22
2023-04-14T16:02:25.216Z,9.40
2023-04-14T16:04:48.898Z,8.07
2023-04-14T16:07:12.589Z,6.50
2023-04-14T16:09:37.593Z,5.72
2023-04-14T16:12:01.425Z,8.55
2023-04-14T16:14:24.929Z,6.85
2023-04-14T16:16:48.496Z,8.02
2023-04-14T16:19:12.539Z,6.80
2023-04-14T16:21:36.180Z,8.32
2023-04-14T16:24:00.005Z,8.52
2023-04-14T16:26:25.244Z,9.55
2023-04-14T16:28:48.828Z,9.60
2023-04-14T16:31:12.991Z,8.00
2023-04-14T16:33:36.524Z,9.18
2023-04-14T16:36:04.411Z,8.35
2023-04-14T16:38:28.242Z,11.73
2023-04-14T16:40:57.399Z,7.50
2023-04-14T16:43:22.329Z,8.15
2023-04-14T16:45:46.602Z,10.38
2023-04-14T16:48:10.129Z,10.27
2023-04-14T16:50:35.044Z,11.73
2023-04-14T16:52:59.111Z,13.23
2023-04-14T16:55:22.675Z,11.55
2023-04-14T16:57:46.238Z,11.73
2023-04-14T17:00:13.839Z,11.65
2023-04-14T17:02:38.695Z,7.07
2023-04-14T17:05:03.518Z,8.45
2023-04-14T17:07:27.092Z,8.75
2023-04-14T17:09:50.880Z,6.72
2023-04-14T17:12:14.376Z,7.65
2023-04-14T17:14:38.506Z,7.05
2023-04-14T17:17:03.535Z,8.27
2023-04-14T17:19:27.573Z,7.82
2023-04-14T17:21:51.066Z,8.27
2023-04-14T17:24:14.739Z,6.13
2023-04-14T17:26:38.332Z,6.93
2023-04-14T17:29:02.302Z,10.27
2023-04-14T17:31:26.584Z,8.30
2023-04-14T17:33:51.736Z,6.85
2023-04-14T17:36:17.542Z,9.77
2023-04-14T17:38:42.817Z,7.55
2023-04-14T17:41:07.924Z,7.93
2023-04-14T17:43:31.543Z,8.25
2023-04-14T17:45:55.298Z,8.05
2023-04-14T17:48:19.506Z,9.13
2023-04-14T17:50:44.645Z,9.18
2023-04-14T17:53:08.397Z,8.40
2023-04-14T17:55:32.499Z,8.38
2023-04-14T17:57:56.430Z,8.65
2023-04-14T18:00:20.628Z,7.85
2023-04-14T18:02:44.293Z,9.13
2023-04-14T18:05:09.065Z,9.63
2023-04-14T18:07:34.614Z,10.57
2023-04-14T18:09:58.517Z,10.30
2023-04-14T18:12:22.972Z,12.25
2023-04-14T18:14:46.488Z,13.82
2023-04-14T18:17:10.722Z,11.40
2023-04-14T18:19:35.809Z,12.45
2023-04-14T18:21:59.483Z,10.65
2023-04-14T18:26:51.878Z,11.98
2023-04-14T18:29:15.446Z,12.38
2023-04-14T18:31:39.058Z,14.10
2023-04-14T18:34:06.467Z,12.65
2023-04-14T18:36:30.145Z,12.05
2023-04-14T18:38:53.626Z,14.38
2023-04-14T18:41:19.886Z,12.73
2023-04-14T18:43:43.384Z,12.63
2023-04-14T18:46:07.033Z,14.00
2023-04-14T18:48:30.661Z,14.63
2023-04-14T18:51:00.073Z,12.60
2023-04-14T18:53:24.614Z,13.52
2023-04-14T18:55:49.544Z,12.98
2023-04-14T18:58:15.026Z,14.77
2023-04-14T19:00:38.887Z,13.65
2023-04-14T19:03:04.634Z,14.15
2023-04-14T19:05:29.757Z,14.95
2023-04-14T19:07:53.305Z,14.15
2023-04-14T19:10:17.132Z,15.18
2023-04-14T19:12:40.872Z,13.02
2023-04-14T19:15:07.704Z,14.27
2023-04-14T19:17:34.690Z,14.35
2023-04-14T19:19:58.292Z,15.05
2023-04-14T19:22:21.804Z,16.38
2023-04-14T19:24:45.455Z,17.00
2023-04-14T19:27:10.310Z,16.10
2023-04-14T19:29:33.900Z,17.67
2023-04-14T19:31:58.868Z,16.50
2023-04-14T19:34:22.524Z,19.80
2023-04-14T19:36:47.712Z,17.30
2023-04-14T19:39:11.286Z,15.65
2023-04-14T19:41:34.883Z,17.50
2023-04-14T19:43:58.581Z,15.82
2023-04-14T19:46:22.662Z,18.60
2023-04-14T19:48:47.728Z,17.48
2023-04-14T19:51:11.396Z,16.52
2023-04-14T19:53:34.965Z,17.15
2023-04-14T19:55:59.788Z,17.13
2023-04-14T19:58:24.794Z,15.57
2023-04-14T20:00:48.814Z,13.65
2023-04-14T20:03:12.862Z,15.60
2023-04-14T20:05:38.001Z,16.52
2023-04-14T20:08:01.635Z,15.60
2023-04-14T20:10:25.140Z,17.45
2023-04-14T20:12:49.303Z,15.27
2023-04-14T20:15:13.161Z,17.13
2023-04-14T20:17:36.844Z,17.65
2023-04-14T20:20:01.567Z,18.90
2023-04-14T20:22:27.208Z,17.88
2023-04-14T20:24:50.702Z,19.75
2023-04-14T20:27:14.370Z,21.58
2023-04-14T20:29:38.001Z,19.25
2023-04-14T20:32:02.221Z,24.83
2023-04-14T20:34:26.616Z,24.08
2023-04-14T20:36:53.018Z,21.63
2023-04-14T20:39:18.303Z,21.88
2023-04-14T20:41:42.162Z,22.30
2023-04-14T20:44:06.331Z,22.10
2023-04-14T20:46:30.399Z,22.17
2023-04-14T20:48:53.985Z,20.25
2023-04-14T20:51:18.128Z,25.33
2023-04-14T20:53:41.694Z,24.92
2023-04-14T20:56:07.123Z,21.88
2023-04-14T20:58:30.661Z,23.25
2023-04-14T21:00:54.226Z,24.60
2023-04-14T21:03:18.283Z,23.08
2023-04-14T21:05:42.200Z,27.00
2023-04-14T21:08:05.863Z,29.27
2023-04-14T21:10:29.675Z,32.78
2023-04-14T21:15:24.685Z,26.45
2023-04-14T21:15:52.401Z,22.00
2023-04-14T21:18:17.254Z,23.02
2023-04-14T21:20:41.202Z,25.88
2023-04-14T21:23:04.811Z,25.60
2023-04-14T21:25:28.361Z,29.35
2023-04-14T21:27:53.586Z,31.50
2023-04-14T21:30:17.484Z,30.75
2023-04-14T21:32:41.474Z,28.65
2023-04-14T21:35:05.407Z,31.02
2023-04-14T21:37:29.226Z,30.05
2023-04-14T21:39:53.677Z,33.28
2023-04-14T21:42:17.476Z,32.67
2023-04-14T21:44:42.441Z,35.17
2023-04-14T21:47:06.383Z,33.28
2023-04-14T21:49:29.899Z,36.78
2023-04-14T21:51:53.653Z,37.08
2023-04-14T21:54:17.156Z,36.70
2023-04-14T21:56:41.816Z,33.88
2023-04-14T21:59:06.279Z,38.20
2023-04-14T22:01:31.477Z,37.42
2023-04-14T22:03:56.031Z,37.20
2023-04-14T22:06:21.086Z,34.97
2023-04-14T22:08:44.748Z,35.65
2023-04-14T22:11:08.486Z,34.30
2023-04-14T22:13:32.168Z,35.58
2023-04-14T22:15:56.641Z,35.72
2023-04-14T22:18:21.889Z,35.65
2023-04-14T22:20:46.139Z,35.50
2023-04-14T22:23:09.674Z,35.33
2023-04-14T22:25:33.384Z,37.70
2023-04-14T22:27:57.302Z,38.53
2023-04-14T22:30:20.964Z,40.47
2023-04-14T22:32:44.666Z,37.25
2023-04-14T22:35:10.478Z,44.08
2023-04-14T22:37:34.190Z,35.58
2023-04-14T22:39:57.755Z,41.83
2023-04-14T22:42:21.285Z,40.15
2023-04-14T22:44:45.042Z,43.17
2023-04-14T22:47:08.623Z,37.90
2023-04-14T22:49:32.602Z,39.50
2023-04-14T22:51:58.021Z,47.60
2023-04-14T22:54:21.589Z,43.33
2023-04-14T22:56:45.129Z,41.42
2023-04-14T22:59:08.780Z,44.50
2023-04-14T23:01:32.839Z,44.40
2023-04-14T23:03:56.751Z,44.00
2023-04-14T23:06:20.560Z,43.40
2023-04-14T23:08:45.844Z,44.88
2023-04-14T23:11:09.370Z,46.78
2023-04-14T23:13:33.301Z,46.80
2023-04-14T23:15:56.870Z,44.72
2023-04-14T23:18:20.683Z,50.42
2023-04-14T23:20:44.611Z,50.28
2023-04-14T23:23:12.262Z,49.00
2023-04-14T23:25:37.509Z,52.97
2023-04-14T23:28:01.168Z,52.00
2023-04-14T23:30:24.700Z,53.00
2023-04-14T23:32:48.320Z,59.40
2023-04-14T23:35:12.026Z,55.72
2023-04-14T23:37:35.628Z,58.47
2023-04-14T23:39:59.160Z,50.10
2023-04-14T23:42:24.247Z,53.42
2023-04-14T23:44:47.776Z,50.88
2023-04-14T23:47:11.556Z,51.63
2023-04-14T23:49:35.780Z,52.45
2023-04-14T23:51:59.635Z,54.33
2023-04-14T23:54:23.242Z,60.90
2023-04-14T23:56:48.526Z,48.45
2023-04-14T23:59:13.416Z,53.30
